Time;durP1;ratioP1;P1;durP2;ratioP2;P2;SDS_P1;SDS_P2;PMS_P1;PMS_P2;Temp;Humidity;BMP_temperature;BMP_pressure;BME280_temperature;BME280_humidity;BME280_pressure;Samples;Min_cycle;Max_cycle;Signal;HPM_P1;HPM_P2
2021/05/21 00:02:07;;;;;;;2.03;1.00;;;;;;;12.96;62.81;100743.69;5134855;27;20034;-39
2021/05/21 00:04:32;;;;;;;2.97;1.20;;;;;;;12.91;63.51;100736.28;5135233;27;20051;-38
2021/05/21 00:06:57;;;;;;;2.10;0.60;;;;;;;12.95;63.31;100734.72;5135082;27;20019;-39
2021/05/21 00:09:22;;;;;;;3.03;0.70;;;;;;;12.92;63.56;100731.69;5135160;27;20051;-39
2021/05/21 00:11:48;;;;;;;2.13;0.80;;;;;;;12.95;63.95;100734.72;5135021;27;20030;-39
2021/05/21 00:14:13;;;;;;;3.07;0.63;;;;;;;12.97;63.05;100729.84;5135763;27;20023;-39
2021/05/21 00:16:39;;;;;;;3.40;0.60;;;;;;;12.99;62.59;100722.28;5134946;27;20058;-39
2021/05/21 00:19:04;;;;;;;3.27;0.80;;;;;;;13.00;63.05;100717.69;5135631;27;20089;-39
2021/05/21 00:21:29;;;;;;;2.20;0.70;;;;;;;13.01;63.21;100712.00;5133128;27;20285;-40
2021/05/21 00:23:55;;;;;;;2.50;1.03;;;;;;;13.00;63.41;100715.78;5135310;27;20291;-39
2021/05/21 00:26:20;;;;;;;2.37;0.90;;;;;;;13.01;63.08;100716.59;5134758;27;20015;-39
2021/05/21 00:28:45;;;;;;;3.80;1.30;;;;;;;13.04;63.11;100711.50;5133660;27;20084;-39
2021/05/21 00:31:11;;;;;;;4.38;0.93;;;;;;;13.00;63.55;100695.97;5135173;27;20019;-39
2021/05/21 00:33:36;;;;;;;5.13;1.00;;;;;;;12.96;63.80;100687.50;5134680;27;20542;-39
2021/05/21 00:36:02;;;;;;;1.80;0.70;;;;;;;12.94;63.71;100686.13;5134351;27;20486;-39
2021/05/21 00:38:27;;;;;;;1.27;0.70;;;;;;;12.91;63.78;100694.75;5134192;27;20031;-39
2021/05/21 00:40:52;;;;;;;4.03;0.80;;;;;;;12.91;63.33;100692.84;5134798;27;20047;-39
2021/05/21 00:43:18;;;;;;;1.67;0.80;;;;;;;12.96;63.49;100684.78;5134196;27;20455;-39
2021/05/21 00:45:43;;;;;;;2.70;0.70;;;;;;;12.93;63.75;100668.19;5134880;27;20054;-39
2021/05/21 00:48:09;;;;;;;1.52;0.70;;;;;;;12.91;63.86;100654.88;5134362;27;20285;-38
2021/05/21 00:50:35;;;;;;;2.13;0.65;;;;;;;12.89;63.80;100663.28;5134473;27;20447;-38
2021/05/21 00:53:03;;;;;;;1.98;0.80;;;;;;;12.91;63.63;100662.19;5134387;27;20115;-39
2021/05/21 00:55:29;;;;;;;2.38;0.90;;;;;;;12.91;64.01;100652.16;5134919;27;20031;-39
2021/05/21 00:57:54;;;;;;;3.55;0.93;;;;;;;12.88;64.16;100656.22;5134288;27;20019;-39
2021/05/21 01:00:20;;;;;;;2.17;0.60;;;;;;;12.88;64.09;100648.06;5133888;27;20056;-39
2021/05/21 01:02:45;;;;;;;2.00;0.90;;;;;;;12.91;63.41;100648.63;5134691;27;20031;-39
2021/05/21 01:05:11;;;;;;;2.43;0.90;;;;;;;12.89;64.11;100648.88;5135049;27;20045;-39
2021/05/21 01:07:36;;;;;;;2.40;1.00;;;;;;;12.85;63.93;100639.59;5134448;27;20027;-38
2021/05/21 01:10:03;;;;;;;3.83;1.20;;;;;;;12.85;64.08;100634.16;5134266;27;20112;-39
2021/05/21 01:12:28;;;;;;;3.00;0.80;;;;;;;12.80;64.63;100628.69;5133911;27;20031;-39
2021/05/21 01:14:56;;;;;;;1.70;0.67;;;;;;;12.81;64.33;100633.03;5134178;27;20062;-39
2021/05/21 01:17:22;;;;;;;2.55;0.70;;;;;;;12.79;64.30;100618.91;5133779;27;20076;-38
2021/05/21 01:19:48;;;;;;;2.10;0.85;;;;;;;12.81;63.80;100624.88;5134192;27;20093;-39
2021/05/21 01:22:14;;;;;;;;;;;;;;;12.83;64.03;100622.72;5134789;27;20497;-38
2021/05/21 01:24:40;;;;;;;1.25;0.85;;;;;;;12.76;64.17;100617.50;5134051;28;19916;-39
2021/05/21 01:27:07;;;;;;;;;;;;;;;12.82;64.18;100623.81;5134716;27;20050;-39
2021/05/21 01:29:32;;;;;;;2.47;0.70;;;;;;;12.76;64.11;100616.66;5134066;28;19960;-39
2021/05/21 01:31:58;;;;;;;3.92;1.00;;;;;;;12.73;64.76;100614.44;5133662;27;20024;-39
2021/05/21 01:34:23;;;;;;;5.70;0.90;;;;;;;12.76;64.11;100600.41;5133959;27;20058;-39
2021/05/21 01:36:49;;;;;;;4.30;1.47;;;;;;;12.72;64.48;100596.53;5132417;28;20051;-38
2021/05/21 01:39:15;;;;;;;2.40;0.85;;;;;;;12.69;64.75;100595.16;5134508;27;20034;-39
2021/05/21 01:41:42;;;;;;;2.30;0.80;;;;;;;12.70;64.73;100591.38;5133855;27;20033;-39
2021/05/21 01:44:11;;;;;;;4.15;1.00;;;;;;;12.66;64.90;100589.41;5133819;27;20059;-38
2021/05/21 01:46:38;;;;;;;3.33;1.00;;;;;;;12.65;64.70;100579.63;5134456;27;20054;-39
2021/05/21 01:49:05;;;;;;;2.08;0.80;;;;;;;12.63;64.82;100577.97;5134392;28;20050;-39
2021/05/21 01:51:32;;;;;;;5.57;1.20;;;;;;;12.62;65.03;100570.91;5134053;27;20167;-39
2021/05/21 01:54:15;;;;;;;4.05;1.17;;;;;;;12.65;64.19;100577.75;5133498;27;20038;-39
2021/05/21 01:56:41;;;;;;;1.65;0.90;;;;;;;12.61;65.14;100580.13;5134295;27;20128;-39
2021/05/21 01:59:06;;;;;;;1.98;0.90;;;;;;;12.60;65.75;100575.78;5133686;27;20114;-39
2021/05/21 02:01:31;;;;;;;4.67;0.93;;;;;;;12.61;66.08;100576.59;5133672;27;20026;-39
2021/05/21 02:03:58;;;;;;;1.90;0.80;;;;;;;12.65;66.29;100571.50;5133288;27;20576;-39
2021/05/21 02:06:24;;;;;;;1.83;0.70;;;;;;;12.61;67.39;100582.84;5133665;27;20027;-38
2021/05/21 02:08:49;;;;;;;1.60;0.80;;;;;;;12.62;67.47;100587.19;5132094;28;20070;-39
2021/05/21 02:11:15;;;;;;;3.43;1.03;;;;;;;12.57;68.72;100608.81;5134200;27;20492;-38
2021/05/21 02:13:40;;;;;;;2.43;1.00;;;;;;;12.44;71.03;100595.59;5137295;27;20425;-38
2021/05/21 02:16:05;;;;;;;4.80;1.50;;;;;;;12.33;73.18;100608.19;5137247;27;20046;-38
2021/05/21 02:18:30;;;;;;;9.43;2.00;;;;;;;12.20;73.42;100607.72;5136933;27;20489;-40
2021/05/21 02:20:56;;;;;;;8.98;2.50;;;;;;;12.07;74.62;100598.03;5137419;27;20049;-39
2021/05/21 02:23:21;;;;;;;7.13;2.20;;;;;;;12.00;74.44;100598.19;5137029;27;20027;-40
2021/05/21 02:25:47;;;;;;;10.00;2.30;;;;;;;11.89;74.80;100601.81;5137901;27;20039;-40
2021/05/21 02:28:12;;;;;;;9.00;2.80;;;;;;;11.81;75.92;100621.16;5136752;27;20027;-39
2021/05/21 02:30:38;;;;;;;12.53;3.17;;;;;;;11.75;76.01;100616.69;5137308;27;20027;-39
2021/05/21 02:33:03;;;;;;;10.60;2.67;;;;;;;11.69;76.52;100621.19;5136908;27;20034;-39
2021/05/21 02:35:28;;;;;;;12.37;3.37;;;;;;;11.63;77.08;100603.22;5137437;27;20511;-39
2021/05/21 02:37:54;;;;;;;11.17;2.57;;;;;;;11.61;77.06;100605.34;5136545;27;20030;-39
2021/05/21 02:40:19;;;;;;;14.37;3.40;;;;;;;11.54;77.40;100589.25;5137068;27;20069;-39
2021/05/21 02:42:44;;;;;;;13.80;3.05;;;;;;;11.46;78.04;100586.13;5136606;27;20390;-39
2021/05/21 02:45:10;;;;;;;10.27;3.10;;;;;;;11.37;77.92;100585.72;5136791;27;20050;-39
2021/05/21 02:47:35;;;;;;;14.27;3.95;;;;;;;11.31;77.88;100578.53;5137435;27;20034;-39
2021/05/21 02:50:01;;;;;;;12.60;2.83;;;;;;;11.30;78.09;100591.25;5136302;27;20045;-39
2021/05/21 02:52:27;;;;;;;11.73;2.97;;;;;;;11.22;78.52;100591.63;5136565;27;20738;-39
2021/05/21 02:54:53;;;;;;;12.10;2.80;;;;;;;11.24;78.29;100583.28;5136798;27;20399;-39
2021/05/21 02:57:21;;;;;;;8.73;2.13;;;;;;;11.20;78.05;100576.69;5136253;27;20027;-39
2021/05/21 02:59:46;;;;;;;10.40;2.50;;;;;;;11.19;78.39;100573.19;5136978;27;20391;-39
2021/05/21 03:02:12;;;;;;;10.93;3.30;;;;;;;11.19;78.12;100564.25;5136208;27;20027;-39
2021/05/21 03:04:37;;;;;;;14.00;3.07;;;;;;;11.05;79.16;100561.00;5136646;27;20051;-39
2021/05/21 03:07:02;;;;;;;10.47;2.53;;;;;;;11.06;79.26;100552.63;5136283;27;20027;-39
2021/05/21 03:09:28;;;;;;;14.33;3.60;;;;;;;11.01;79.21;100560.66;5136590;27;20447;-39
2021/05/21 03:11:53;;;;;;;9.80;2.67;;;;;;;11.02;78.99;100554.16;5135927;27;20015;-39
2021/05/21 03:14:19;;;;;;;11.07;2.40;;;;;;;10.98;78.92;100554.88;5136011;27;20471;-39
2021/05/21 03:16:44;;;;;;;10.13;2.38;;;;;;;10.95;79.12;100553.50;5135793;27;20497;-39
2021/05/21 03:19:09;;;;;;;11.27;2.83;;;;;;;10.95;78.75;100549.97;5136155;27;20046;-39
2021/05/21 03:21:35;;;;;;;11.27;2.40;;;;;;;10.90;79.49;100539.06;5135782;27;20035;-39
2021/05/21 03:24:00;;;;;;;10.90;2.83;;;;;;;10.87;79.28;100523.28;5134946;27;20103;-39
2021/05/21 03:26:25;;;;;;;10.87;2.90;;;;;;;10.77;79.71;100519.31;5136704;27;20038;-39
2021/05/21 03:28:51;;;;;;;8.33;2.50;;;;;;;10.76;79.74;100531.22;5135964;27;20027;-39
2021/05/21 03:31:16;;;;;;;12.83;3.20;;;;;;;10.70;79.88;100525.94;5136225;27;20129;-39
2021/05/21 03:33:41;;;;;;;8.43;2.23;;;;;;;10.65;80.79;100520.44;5135807;27;20109;-39
2021/05/21 03:36:07;;;;;;;13.67;3.00;;;;;;;10.69;80.45;100518.91;5135744;27;20031;-39
2021/05/21 03:38:32;;;;;;;13.13;3.17;;;;;;;10.74;79.59;100516.28;5135362;27;20027;-39
2021/05/21 03:40:58;;;;;;;10.57;2.30;;;;;;;10.66;80.14;100517.47;5135936;27;20015;-39
2021/05/21 03:43:23;;;;;;;13.03;3.43;;;;;;;10.63;80.30;100500.91;5135239;27;20106;-39
2021/05/21 03:45:48;;;;;;;9.33;2.53;;;;;;;10.65;79.90;100506.91;5136502;27;20100;-39
2021/05/21 03:48:15;;;;;;;12.20;3.50;;;;;;;10.57;80.30;100497.28;5135427;27;20059;-39
2021/05/21 03:50:40;;;;;;;;;;;;;;;10.70;79.60;100507.84;5136131;27;20031;-39
2021/05/21 03:53:05;;;;;;;9.55;2.78;;;;;;;10.61;80.40;100505.75;5135876;27;19919;-39
2021/05/21 03:55:31;;;;;;;11.13;3.50;;;;;;;10.54;81.46;100511.25;5134247;27;20035;-39
2021/05/21 03:57:57;;;;;;;11.98;3.05;;;;;;;10.57;80.57;100506.22;5135581;27;20027;-39
2021/05/21 04:00:23;;;;;;;10.45;2.90;;;;;;;10.63;80.46;100507.13;5135861;27;20055;-39
2021/05/21 04:02:50;;;;;;;13.25;4.03;;;;;;;10.63;80.21;100496.31;5135205;27;20155;-39
2021/05/21 04:05:16;;;;;;;9.65;2.45;;;;;;;10.54;80.75;100503.16;5135434;27;20069;-39
2021/05/21 04:07:42;;;;;;;13.75;3.47;;;;;;;10.52;81.06;100498.00;5135334;27;20432;-39
2021/05/21 04:10:08;;;;;;;14.60;3.45;;;;;;;10.48;81.13;100488.72;5135128;27;20027;-39
2021/05/21 04:12:34;;;;;;;8.75;2.63;;;;;;;10.51;80.72;100498.25;5134694;27;20027;-39
2021/05/21 04:14:59;;;;;;;11.30;3.13;;;;;;;10.46;81.12;100485.44;5135630;27;20102;-39
2021/05/21 04:17:24;;;;;;;9.37;2.83;;;;;;;10.61;80.51;100486.81;5135118;27;20066;-39
2021/05/21 04:19:50;;;;;;;12.10;3.60;;;;;;;10.59;81.10;100487.06;5135186;27;20019;-39
2021/05/21 04:22:16;;;;;;;10.98;3.17;;;;;;;10.61;80.71;100484.94;5134874;27;20027;-39
2021/05/21 04:24:42;;;;;;;13.20;3.83;;;;;;;10.70;80.75;100488.91;5134504;27;20144;-39
2021/05/21 04:27:08;;;;;;;13.15;3.35;;;;;;;10.63;80.71;100495.50;5134494;27;20031;-39
2021/05/21 04:29:33;;;;;;;10.27;3.10;;;;;;;10.66;79.19;100479.63;5134753;27;20027;-39
2021/05/21 04:31:59;;;;;;;9.30;2.40;;;;;;;10.68;78.59;100482.06;5134635;27;20154;-39
2021/05/21 04:34:24;;;;;;;15.10;3.10;;;;;;;10.71;78.76;100492.44;5134933;27;20023;-39
2021/05/21 04:36:50;;;;;;;9.32;2.95;;;;;;;10.78;77.35;100491.22;5134252;27;20463;-39
2021/05/21 04:39:16;;;;;;;11.95;2.72;;;;;;;10.83;77.62;100485.06;5135047;27;20023;-39
2021/05/21 04:41:41;;;;;;;9.43;2.97;;;;;;;10.90;76.65;100496.59;5134577;27;20487;-39
2021/05/21 04:44:06;;;;;;;9.00;2.67;;;;;;;10.87;76.82;100483.53;5134764;27;20273;-39
2021/05/21 04:46:31;;;;;;;9.60;2.70;;;;;;;10.93;76.38;100485.28;5134268;27;20464;-39
2021/05/21 04:48:57;;;;;;;10.93;2.40;;;;;;;11.00;77.29;100479.72;5134624;27;20034;-39
2021/05/21 04:51:22;;;;;;;10.83;2.60;;;;;;;11.08;75.09;100469.34;5134352;27;20102;-39
2021/05/21 04:53:47;;;;;;;7.23;2.27;;;;;;;11.17;75.20;100474.34;5134753;27;20023;-39
2021/05/21 04:56:13;;;;;;;9.47;2.90;;;;;;;11.24;74.97;100467.72;5135225;27;20054;-39
2021/05/21 04:58:38;;;;;;;10.63;2.40;;;;;;;11.25;72.66;100460.41;5134324;27;20443;-40
2021/05/21 05:01:04;;;;;;;10.27;2.20;;;;;;;11.33;71.38;100470.84;5134540;27;20462;-38
2021/05/21 05:03:30;;;;;;;12.65;2.95;;;;;;;11.37;70.10;100465.75;5134658;27;20035;-38
2021/05/21 05:05:56;;;;;;;9.98;2.42;;;;;;;11.45;70.36;100465.34;5134966;27;20035;-39
2021/05/21 05:08:21;;;;;;;7.60;2.10;;;;;;;11.49;70.53;100464.59;5134284;27;20101;-38
2021/05/21 05:10:48;;;;;;;10.77;2.85;;;;;;;11.56;69.99;100467.13;5134774;27;20498;-39
2021/05/21 05:13:14;;;;;;;10.52;2.90;;;;;;;11.58;68.60;100455.00;5134637;28;20027;-38
2021/05/21 05:15:41;;;;;;;10.65;2.08;;;;;;;11.66;67.39;100461.06;5134504;27;20431;-39
2021/05/21 05:18:07;;;;;;;15.10;2.85;;;;;;;11.67;67.77;100452.72;5134111;27;20106;-38
2021/05/21 05:20:34;;;;;;;10.10;2.93;;;;;;;11.76;66.25;100462.06;5134536;27;20102;-38
2021/05/21 05:23:00;;;;;;;11.57;2.50;;;;;;;11.77;65.33;100447.44;5134031;27;20477;-39
2021/05/21 05:25:25;;;;;;;12.18;2.67;;;;;;;11.75;66.64;100437.91;5134414;27;20066;-39
2021/05/21 05:27:51;;;;;;;13.07;2.95;;;;;;;11.84;64.23;100447.28;5134174;27;20139;-39
2021/05/21 05:30:17;;;;;;;13.88;2.75;;;;;;;11.90;64.44;100440.06;5133746;27;20023;-39
2021/05/21 05:32:43;;;;;;;11.48;2.47;;;;;;;11.92;63.75;100436.03;5134256;27;20023;-39
2021/05/21 05:35:09;;;;;;;10.93;3.10;;;;;;;11.99;63.46;100428.53;5133814;27;20087;-39
2021/05/21 05:37:34;;;;;;;9.20;2.25;;;;;;;12.00;64.33;100423.94;5134208;27;20133;-39
2021/05/21 05:39:59;;;;;;;15.77;2.87;;;;;;;12.06;64.87;100426.47;5133767;27;20061;-39
2021/05/21 05:42:25;;;;;;;9.13;2.30;;;;;;;12.15;63.78;100426.03;5134504;27;20027;-39
2021/05/21 05:44:50;;;;;;;9.03;2.60;;;;;;;12.29;63.08;100428.09;5133515;27;20055;-39
2021/05/21 05:47:16;;;;;;;13.32;2.72;;;;;;;12.30;62.04;100418.09;5136125;27;20039;-39
2021/05/21 05:49:41;;;;;;;10.85;2.30;;;;;;;12.20;62.83;100426.94;5137660;27;20459;-39
2021/05/21 05:52:07;;;;;;;12.57;2.93;;;;;;;12.04;63.07;100431.31;5137452;27;20027;-39
2021/05/21 05:54:33;;;;;;;10.95;2.40;;;;;;;12.02;61.56;100424.53;5137730;27;20023;-39
2021/05/21 05:56:58;;;;;;;12.53;2.97;;;;;;;11.96;62.31;100433.66;5137658;27;20045;-39
2021/05/21 05:59:25;;;;;;;12.87;3.13;;;;;;;11.92;61.21;100430.63;5138261;27;20115;-39
2021/05/21 06:01:51;;;;;;;10.32;2.80;;;;;;;11.88;62.06;100413.22;5137738;27;20034;-39
2021/05/21 06:04:16;;;;;;;10.53;2.80;;;;;;;11.93;62.16;100416.00;5137590;27;20455;-39
2021/05/21 06:06:41;;;;;;;13.87;2.90;;;;;;;11.92;61.23;100418.97;5137590;27;20027;-39
2021/05/21 06:09:09;;;;;;;15.00;3.70;;;;;;;11.87;59.94;100413.47;5137738;27;20099;-39
2021/05/21 06:11:34;;;;;;;14.02;3.13;;;;;;;11.83;60.77;100416.69;5137090;27;20023;-39
2021/05/21 06:14:00;;;;;;;10.70;3.05;;;;;;;11.85;60.78;100416.41;5137340;27;20087;-39
2021/05/21 06:16:25;;;;;;;12.53;2.50;;;;;;;11.92;60.72;100406.22;5137268;27;20031;-39
2021/05/21 06:18:51;;;;;;;11.53;3.10;;;;;;;11.98;59.11;100412.53;5137204;27;20076;-39
2021/05/21 06:21:17;;;;;;;12.93;3.33;;;;;;;12.00;58.99;100405.78;5137169;27;20051;-39
2021/05/21 06:23:46;;;;;;;12.98;3.22;;;;;;;12.03;60.06;100402.59;5136772;27;20031;-39
2021/05/21 06:26:31;;;;;;;11.85;3.05;;;;;;;12.04;59.59;100401.50;5137054;27;20440;-39
2021/05/21 06:28:56;;;;;;;10.65;2.70;;;;;;;12.09;59.05;100400.75;5137069;27;20484;-39
2021/05/21 06:31:22;;;;;;;8.82;2.53;;;;;;;12.28;59.68;100398.53;5137056;27;20059;-39
2021/05/21 06:33:48;;;;;;;13.90;3.17;;;;;;;12.34;58.88;100397.53;5136676;27;20034;-39
2021/05/21 06:36:13;;;;;;;11.98;3.47;;;;;;;12.34;60.58;100402.94;5136928;27;20071;-40
2021/05/21 06:38:40;;;;;;;9.77;2.53;;;;;;;12.34;60.66;100403.75;5136780;27;20110;-39
2021/05/21 06:41:06;;;;;;;14.25;2.80;;;;;;;12.27;60.91;100386.06;5137117;27;20257;-39
2021/05/21 06:43:32;;;;;;;11.45;3.15;;;;;;;12.29;62.79;100392.88;5136936;27;20076;-39
2021/05/21 06:45:59;;;;;;;10.48;2.88;;;;;;;12.25;62.29;100382.78;5136825;27;20497;-40
2021/05/21 06:48:34;;;;;;;10.88;2.72;;;;;;;12.20;63.90;100390.84;5136772;27;20068;-40
2021/05/21 06:51:02;;;;;;;11.13;2.63;;;;;;;12.17;63.13;100397.59;5136677;27;20030;-39
2021/05/21 06:53:27;;;;;;;10.52;3.30;;;;;;;12.12;64.11;100397.53;5136303;27;20033;-40
2021/05/21 06:55:53;;;;;;;8.32;2.50;;;;;;;12.13;64.69;100393.75;5136690;27;20031;-40
2021/05/21 06:58:20;;;;;;;9.57;2.83;;;;;;;12.18;65.72;100415.50;5136598;27;20116;-39
2021/05/21 07:00:46;;;;;;;;;;;;;;;12.20;66.99;100404.41;5136918;27;20110;-39
2021/05/21 07:03:11;;;;;;;8.88;2.35;;;;;;;11.95;69.36;100396.78;5136277;27;19916;-39
2021/05/21 07:05:38;;;;;;;7.90;2.63;;;;;;;11.89;71.11;100414.03;5136182;27;20023;-39
2021/05/21 07:08:03;;;;;;;11.60;2.10;;;;;;;11.97;71.27;100409.00;5136261;27;20037;-39
2021/05/21 07:10:28;;;;;;;5.93;1.80;;;;;;;12.14;70.89;100408.13;5135013;27;20039;-39
2021/05/21 07:12:54;;;;;;;8.63;2.10;;;;;;;12.37;70.94;100416.81;5136525;27;20030;-39
2021/05/21 07:15:19;;;;;;;8.53;2.37;;;;;;;12.59;71.02;100421.41;5136605;27;20091;-39
2021/05/21 07:17:46;;;;;;;10.10;3.35;;;;;;;12.63;70.49;100415.22;5136407;27;20422;-39
2021/05/21 07:20:12;;;;;;;;;;;;;;;12.76;69.59;100399.63;5136446;27;20127;-39
2021/05/21 07:22:38;;;;;;;9.63;2.40;;;;;;;12.67;70.43;100412.00;5136201;27;19908;-40
2021/05/21 07:25:05;;;;;;;9.75;2.10;;;;;;;12.79;69.33;100409.97;5136447;27;20035;-39
2021/05/21 07:27:31;;;;;;;8.75;2.50;;;;;;;12.76;67.34;100394.19;5136105;27;20461;-39
2021/05/21 07:29:56;;;;;;;8.80;2.40;;;;;;;12.74;67.21;100404.50;5136381;27;20062;-39
2021/05/21 07:32:21;;;;;;;13.53;2.60;;;;;;;12.51;67.89;100403.69;5135811;27;20027;-40
2021/05/21 07:34:46;;;;;;;8.07;2.63;;;;;;;12.34;65.98;100405.66;5135885;27;20034;-39
2021/05/21 07:37:12;;;;;;;9.83;2.50;;;;;;;12.30;64.58;100413.50;5136457;27;20038;-40
2021/05/21 07:39:37;;;;;;;8.40;2.13;;;;;;;12.31;64.81;100422.44;5135557;27;20062;-39
2021/05/21 07:42:03;;;;;;;8.63;2.38;;;;;;;12.49;64.19;100403.16;5135296;27;20043;-39
2021/05/21 07:44:29;;;;;;;8.93;2.33;;;;;;;12.71;62.73;100403.09;5136243;27;20197;-39
2021/05/21 07:46:54;;;;;;;;;;;;;;;12.93;62.78;100394.88;5135653;27;20497;-39
2021/05/21 07:49:24;;;;;;;7.93;2.40;;;;;;;13.01;61.05;100391.72;5135534;27;19911;-39
2021/05/21 07:51:52;;;;;;;8.15;2.40;;;;;;;13.15;61.42;100390.22;5135161;27;20031;-39
2021/05/21 07:54:18;;;;;;;9.52;2.40;;;;;;;13.29;61.10;100389.81;5135452;27;20092;-39
2021/05/21 07:56:43;;;;;;;10.93;2.75;;;;;;;13.37;59.76;100387.44;5135316;27;20034;-39
2021/05/21 07:59:11;;;;;;;9.60;2.47;;;;;;;13.54;58.12;100390.00;5135917;27;20039;-39
2021/05/21 08:01:36;;;;;;;9.55;2.80;;;;;;;13.61;58.28;100397.91;5135757;27;20034;-39
2021/05/21 08:04:02;;;;;;;10.63;2.70;;;;;;;13.56;57.15;100382.38;5134957;27;20031;-40
2021/05/21 08:06:27;;;;;;;13.18;3.47;;;;;;;13.60;56.73;100383.50;5135697;27;20027;-40
2021/05/21 08:08:53;;;;;;;9.40;2.70;;;;;;;13.66;55.19;100387.06;5134731;27;20034;-40
2021/05/21 08:11:18;;;;;;;9.27;2.47;;;;;;;13.65;56.22;100385.44;5135827;27;20023;-40
2021/05/21 08:13:44;;;;;;;6.57;2.53;;;;;;;13.75;55.80;100384.69;5133349;27;20043;-40
2021/05/21 08:16:13;;;;;;;7.20;1.88;;;;;;;13.94;55.49;100380.44;5134979;27;20043;-39
2021/05/21 08:18:39;;;;;;;11.23;2.38;;;;;;;14.02;54.60;100374.50;5134882;27;20027;-40
2021/05/21 08:21:06;;;;;;;8.40;2.88;;;;;;;14.15;55.14;100384.91;5135243;27;20148;-40
2021/05/21 08:23:31;;;;;;;12.43;2.53;;;;;;;14.36;54.62;100374.09;5135064;27;20361;-40
2021/05/21 08:25:57;;;;;;;10.77;2.30;;;;;;;14.36;53.84;100376.81;5134593;27;20027;-40
2021/05/21 08:28:22;;;;;;;8.10;2.57;;;;;;;14.27;53.31;100371.06;5135285;27;20359;-38
2021/05/21 08:30:48;;;;;;;9.13;2.55;;;;;;;14.38;54.43;100386.31;5134947;27;20027;-38
2021/05/21 08:33:14;;;;;;;12.10;2.75;;;;;;;14.45;54.02;100385.28;5134254;27;20028;-39
2021/05/21 08:35:39;;;;;;;12.55;2.50;;;;;;;14.33;54.34;100377.31;5134774;27;20077;-39
2021/05/21 08:38:04;;;;;;;12.13;2.73;;;;;;;14.34;54.88;100387.13;5135109;27;20119;-39
2021/05/21 08:40:36;;;;;;;8.15;2.42;;;;;;;14.44;54.86;100384.44;5135056;27;20019;-39
2021/05/21 08:43:05;;;;;;;8.98;2.50;;;;;;;14.51;55.88;100395.91;5134904;27;20031;-39
2021/05/21 08:45:30;;;;;;;8.63;1.90;;;;;;;14.42;56.65;100379.25;5134527;27;20043;-40
2021/05/21 08:47:57;;;;;;;7.97;2.40;;;;;;;14.26;56.07;100403.97;5134495;27;20030;-39
2021/05/21 08:50:23;;;;;;;8.80;2.20;;;;;;;13.82;55.21;100401.59;5135562;27;20027;-40
2021/05/21 08:52:48;;;;;;;8.75;2.33;;;;;;;13.68;56.04;100389.53;5134468;27;20038;-40
2021/05/21 08:55:16;;;;;;;11.67;2.37;;;;;;;13.78;55.72;100406.72;5134465;27;20031;-39
2021/05/21 08:57:42;;;;;;;7.80;2.42;;;;;;;14.01;55.83;100386.47;5134258;27;20273;-40
2021/05/21 09:00:08;;;;;;;9.23;2.92;;;;;;;14.20;56.39;100385.97;5134852;27;20030;-40
2021/05/21 09:02:34;;;;;;;9.52;3.05;;;;;;;14.37;56.51;100384.69;5132982;27;20027;-39
2021/05/21 09:05:01;;;;;;;13.20;3.55;;;;;;;14.51;56.14;100376.88;5134252;27;20049;-40
2021/05/21 09:07:32;;;;;;;10.23;2.47;;;;;;;14.64;56.24;100378.25;5134140;27;20027;-40
2021/05/21 09:10:04;;;;;;;13.55;3.22;;;;;;;14.65;56.53;100369.84;5133965;27;20035;-40
2021/05/21 09:12:47;;;;;;;14.23;3.70;;;;;;;14.78;56.06;100382.09;5134153;27;20114;-40
2021/05/21 09:15:14;;;;;;;8.63;2.60;;;;;;;15.02;55.35;100381.56;5134404;27;20110;-40
2021/05/21 09:17:58;;;;;;;11.05;3.33;;;;;;;15.08;54.54;100380.47;5134114;27;20031;-40
2021/05/21 09:20:39;;;;;;;9.80;2.42;;;;;;;15.04;54.06;100373.97;5134124;27;20072;-40
2021/05/21 09:23:11;;;;;;;10.35;2.53;;;;;;;14.88;55.17;100379.41;5137807;27;20027;-40
2021/05/21 09:25:51;;;;;;;12.15;3.10;;;;;;;14.85;54.26;100360.88;5138531;27;20027;-40
2021/05/21 09:28:37;;;;;;;11.60;2.45;;;;;;;15.11;54.07;100369.88;5138215;27;20058;-40
2021/05/21 09:31:23;;;;;;;7.72;2.42;;;;;;;15.28;51.04;100379.69;5138427;27;20015;-40
2021/05/21 09:33:52;;;;;;;11.63;2.70;;;;;;;15.46;51.48;100381.81;5138218;27;20515;-40
2021/05/21 09:36:32;;;;;;;9.63;2.30;;;;;;;15.26;49.32;100390.81;5138083;27;20027;-40
2021/05/21 09:38:58;;;;;;;10.30;2.60;;;;;;;15.09;51.15;100376.69;5138575;27;20019;-47
2021/05/21 09:41:25;;;;;;;9.02;3.20;;;;;;;15.08;50.14;100370.44;5138491;27;20106;-40
2021/05/21 09:43:57;;;;;;;9.48;2.38;;;;;;;14.96;49.85;100377.22;5138059;27;20027;-40
2021/05/21 09:46:22;;;;;;;10.50;2.55;;;;;;;15.00;50.94;100357.34;5137744;27;20046;-40
2021/05/21 09:48:48;;;;;;;12.88;2.72;;;;;;;15.22;48.90;100357.06;5136210;27;20035;-40
2021/05/21 09:51:15;;;;;;;10.95;3.28;;;;;;;15.32;50.13;100354.31;5136442;27;20390;-39
2021/05/21 09:53:40;;;;;;;11.65;2.85;;;;;;;15.57;49.77;100347.22;5136437;27;20026;-39
2021/05/21 09:56:16;;;;;;;10.38;2.70;;;;;;;15.43;47.50;100355.16;5136957;27;20031;-39
2021/05/21 09:58:43;;;;;;;7.05;2.40;;;;;;;15.25;48.10;100352.97;5136864;27;20440;-39
2021/05/21 10:01:18;;;;;;;9.65;2.28;;;;;;;15.12;48.29;100336.09;5136616;27;20030;-39
2021/05/21 10:03:54;;;;;;;8.52;2.97;;;;;;;15.02;47.73;100355.16;5136759;27;20033;-39
2021/05/21 10:06:21;;;;;;;9.70;2.28;;;;;;;14.89;47.19;100347.56;5136789;27;20379;-39
2021/05/21 10:08:48;;;;;;;9.82;3.10;;;;;;;14.87;49.05;100344.25;5136204;27;20024;-39
2021/05/21 10:11:14;;;;;;;10.02;2.72;;;;;;;14.84;48.58;100342.91;5136878;27;20110;-39
2021/05/21 10:13:45;;;;;;;10.80;2.45;;;;;;;14.83;49.64;100343.97;5136046;27;20042;-39
2021/05/21 10:16:12;;;;;;;11.23;2.85;;;;;;;14.89;48.93;100355.72;5136028;27;20072;-39
2021/05/21 10:18:41;;;;;;;10.23;2.67;;;;;;;15.32;50.43;100345.31;5136258;27;20425;-39
2021/05/21 10:21:09;;;;;;;11.35;2.80;;;;;;;15.69;47.86;100343.13;5136855;27;20027;-39
2021/05/21 10:23:39;;;;;;;10.15;2.40;;;;;;;15.75;46.85;100351.28;5136006;27;20099;-39
2021/05/21 10:26:33;;;;;;;8.30;2.75;;;;;;;15.70;46.52;100331.09;5136453;27;20031;-39
2021/05/21 10:29:01;;;;;;;12.63;2.60;;;;;;;15.46;47.85;100333.59;5135266;28;20417;-40
2021/05/21 10:31:27;;;;;;;10.65;2.63;;;;;;;15.43;49.72;100330.63;5136360;27;20492;-40
2021/05/21 10:34:22;;;;;;;7.65;2.35;;;;;;;15.45;50.59;100329.25;5135430;27;20031;-40
2021/05/21 10:36:49;;;;;;;8.38;2.50;;;;;;;15.24;49.15;100329.56;5136324;27;20027;-39
2021/05/21 10:39:22;;;;;;;11.77;2.97;;;;;;;15.10;47.98;100332.84;5135740;27;20469;-39
2021/05/21 10:41:54;;;;;;;11.70;2.60;;;;;;;15.01;46.62;100326.31;5136229;27;20025;-39
2021/05/21 10:44:28;;;;;;;7.63;2.15;;;;;;;14.93;47.26;100333.13;5135495;27;20019;-39
2021/05/21 10:47:22;;;;;;;9.23;2.03;;;;;;;14.97;48.23;100322.47;5106686;27;857909;-39
2021/05/21 10:49:50;;;;;;;10.50;2.22;;;;;;;15.01;47.59;100309.97;5136662;27;20114;-39
2021/05/21 10:52:17;;;;;;;10.60;2.30;;;;;;;15.19;49.15;100325.75;5136881;27;20038;-39
2021/05/21 10:54:46;;;;;;;13.77;2.78;;;;;;;15.25;47.60;100331.19;5136821;27;20381;-39
2021/05/21 10:57:15;;;;;;;10.55;2.20;;;;;;;15.22;47.53;100316.19;5136408;27;20439;-39
2021/05/21 10:59:54;;;;;;;10.57;2.40;;;;;;;15.08;47.36;100307.78;5137562;27;20114;-39
2021/05/21 11:02:40;;;;;;;10.88;2.42;;;;;;;15.04;51.37;100320.31;5136366;27;20153;-39
2021/05/21 11:05:21;;;;;;;10.45;2.53;;;;;;;14.96;50.19;100331.75;5128605;27;20406;-39
2021/05/21 11:07:46;;;;;;;12.00;2.25;;;;;;;14.80;52.44;100358.16;5136302;27;20066;-39
2021/05/21 11:10:39;;;;;;;11.48;2.60;;;;;;;14.55;54.47;100393.50;5136291;27;20102;-39
2021/05/21 11:13:14;;;;;;;7.90;1.77;;;;;;;13.81;60.82;100405.34;5136769;27;20091;-39
2021/05/21 11:15:45;;;;;;;6.65;1.80;;;;;;;13.44;62.83;100402.69;5136966;27;20143;-39
2021/05/21 11:18:16;;;;;;;7.93;2.35;;;;;;;13.18;65.73;100385.34;5136103;27;20026;-39
2021/05/21 11:20:53;;;;;;;9.55;2.95;;;;;;;13.20;65.04;100366.91;5136082;27;20059;-39
2021/05/21 11:23:22;;;;;;;11.82;2.97;;;;;;;13.22;64.92;100379.16;5135615;27;20479;-39